sensor_id;sensor_type;location;lat;lon;timestamp;temperature;humidity
2435;DHT22;1228;51.022;6.764;2023-02-15T00:01:43;2.60;99.90
2435;DHT22;1228;51.022;6.764;2023-02-15T00:04:09;2.50;99.90
2435;DHT22;1228;51.022;6.764;2023-02-15T00:06:35;2.50;99.90
2435;DHT22;1228;51.022;6.764;2023-02-15T00:09:02;2.50;99.90
2435;DHT22;1228;51.022;6.764;2023-02-15T00:11:28;2.50;99.90
2435;DHT22;1228;51.022;6.764;2023-02-15T00:14:07;2.40;99.90
2435;DHT22;1228;51.022;6.764;2023-02-15T00:16:33;2.40;99.90
2435;DHT22;1228;51.022;6.764;2023-02-15T00:18:58;2.40;99.90
2435;DHT22;1228;51.022;6.764;2023-02-15T00:21:28;2.40;99.90
2435;DHT22;1228;51.022;6.764;2023-02-15T00:23:54;2.30;99.90
2435;DHT22;1228;51.022;6.764;2023-02-15T00:26:19;2.30;99.90
2435;DHT22;1228;51.022;6.764;2023-02-15T00:28:45;2.30;99.90
2435;DHT22;1228;51.022;6.764;2023-02-15T00:31:11;2.30;99.90
2435;DHT22;1228;51.022;6.764;2023-02-15T00:33:38;2.30;99.90
2435;DHT22;1228;51.022;6.764;2023-02-15T00:36:07;2.30;99.90
2435;DHT22;1228;51.022;6.764;2023-02-15T00:38:34;2.30;99.90
2435;DHT22;1228;51.022;6.764;2023-02-15T00:41:01;2.20;99.90
2435;DHT22;1228;51.022;6.764;2023-02-15T00:43:28;2.20;99.90
2435;DHT22;1228;51.022;6.764;2023-02-15T00:45:54;2.20;99.90
2435;DHT22;1228;51.022;6.764;2023-02-15T00:48:21;2.20;99.90
2435;DHT22;1228;51.022;6.764;2023-02-15T00:50:49;2.20;99.90
2435;DHT22;1228;51.022;6.764;2023-02-15T00:53:15;2.10;99.90
2435;DHT22;1228;51.022;6.764;2023-02-15T00:55:41;2.10;99.90
2435;DHT22;1228;51.022;6.764;2023-02-15T00:58:07;2.10;99.90
2435;DHT22;1228;51.022;6.764;2023-02-15T01:00:33;2.10;99.90
2435;DHT22;1228;51.022;6.764;2023-02-15T01:02:59;2.10;99.90
2435;DHT22;1228;51.022;6.764;2023-02-15T01:05:24;2.10;99.90
2435;DHT22;1228;51.022;6.764;2023-02-15T01:07:50;2.10;99.90
2435;DHT22;1228;51.022;6.764;2023-02-15T01:10:16;2.00;99.90
2435;DHT22;1228;51.022;6.764;2023-02-15T01:12:41;2.00;99.90
2435;DHT22;1228;51.022;6.764;2023-02-15T01:15:07;2.00;99.90
2435;DHT22;1228;51.022;6.764;2023-02-15T01:17:33;2.00;99.90
2435;DHT22;1228;51.022;6.764;2023-02-15T01:19:59;2.00;99.90
2435;DHT22;1228;51.022;6.764;2023-02-15T01:22:25;2.00;99.90
2435;DHT22;1228;51.022;6.764;2023-02-15T01:24:50;2.00;99.90
2435;DHT22;1228;51.022;6.764;2023-02-15T01:27:16;1.90;99.90
2435;DHT22;1228;51.022;6.764;2023-02-15T01:29:42;1.90;99.90
2435;DHT22;1228;51.022;6.764;2023-02-15T01:32:07;1.90;99.90
2435;DHT22;1228;51.022;6.764;2023-02-15T01:34:33;1.90;99.90
2435;DHT22;1228;51.022;6.764;2023-02-15T01:36:59;1.90;99.90
2435;DHT22;1228;51.022;6.764;2023-02-15T01:39:24;1.90;99.90
2435;DHT22;1228;51.022;6.764;2023-02-15T01:41:50;1.90;99.90
2435;DHT22;1228;51.022;6.764;2023-02-15T01:47:24;1.90;99.90
2435;DHT22;1228;51.022;6.764;2023-02-15T01:50:40;1.90;99.90
2435;DHT22;1228;51.022;6.764;2023-02-15T01:55:17;1.80;99.90
2435;DHT22;1228;51.022;6.764;2023-02-15T01:57:44;1.80;99.90
2435;DHT22;1228;51.022;6.764;2023-02-15T02:00:11;1.80;99.90
2435;DHT22;1228;51.022;6.764;2023-02-15T02:02:38;1.80;99.90
2435;DHT22;1228;51.022;6.764;2023-02-15T02:05:05;1.80;99.90
2435;DHT22;1228;51.022;6.764;2023-02-15T02:07:36;1.80;99.90
2435;DHT22;1228;51.022;6.764;2023-02-15T02:10:03;1.80;99.90
2435;DHT22;1228;51.022;6.764;2023-02-15T02:12:29;1.70;99.90
2435;DHT22;1228;51.022;6.764;2023-02-15T02:14:55;1.70;99.90
2435;DHT22;1228;51.022;6.764;2023-02-15T02:17:49;1.70;99.90
2435;DHT22;1228;51.022;6.764;2023-02-15T02:34:24;1.70;99.90
2435;DHT22;1228;51.022;6.764;2023-02-15T02:45:13;1.60;99.90
2435;DHT22;1228;51.022;6.764;2023-02-15T02:47:46;1.60;99.90
2435;DHT22;1228;51.022;6.764;2023-02-15T02:50:17;1.50;99.90
2435;DHT22;1228;51.022;6.764;2023-02-15T02:52:51;1.50;99.90
2435;DHT22;1228;51.022;6.764;2023-02-15T03:00:25;1.50;99.90
2435;DHT22;1228;51.022;6.764;2023-02-15T03:02:56;1.50;99.90
2435;DHT22;1228;51.022;6.764;2023-02-15T03:05:26;1.50;99.90
2435;DHT22;1228;51.022;6.764;2023-02-15T03:07:53;1.50;99.90
2435;DHT22;1228;51.022;6.764;2023-02-15T03:10:23;1.50;99.90
2435;DHT22;1228;51.022;6.764;2023-02-15T03:12:50;1.50;99.90
2435;DHT22;1228;51.022;6.764;2023-02-15T03:15:29;1.50;99.90
2435;DHT22;1228;51.022;6.764;2023-02-15T03:18:19;1.40;99.90
2435;DHT22;1228;51.022;6.764;2023-02-15T03:20:46;1.40;99.90
2435;DHT22;1228;51.022;6.764;2023-02-15T03:23:16;1.40;99.90
2435;DHT22;1228;51.022;6.764;2023-02-15T03:26:18;1.40;99.90
2435;DHT22;1228;51.022;6.764;2023-02-15T03:28:42;1.40;99.90
2435;DHT22;1228;51.022;6.764;2023-02-15T03:31:10;1.30;99.90
2435;DHT22;1228;51.022;6.764;2023-02-15T03:33:40;1.30;99.90
2435;DHT22;1228;51.022;6.764;2023-02-15T03:36:15;1.30;99.90
2435;DHT22;1228;51.022;6.764;2023-02-15T03:38:58;1.30;99.90
2435;DHT22;1228;51.022;6.764;2023-02-15T03:41:41;1.30;99.90
2435;DHT22;1228;51.022;6.764;2023-02-15T03:44:24;1.30;99.90
2435;DHT22;1228;51.022;6.764;2023-02-15T03:47:03;1.30;99.90
2435;DHT22;1228;51.022;6.764;2023-02-15T03:49:48;1.20;99.90
2435;DHT22;1228;51.022;6.764;2023-02-15T03:52:16;1.20;99.90
2435;DHT22;1228;51.022;6.764;2023-02-15T03:54:43;1.20;99.90
2435;DHT22;1228;51.022;6.764;2023-02-15T03:57:16;1.20;99.90
2435;DHT22;1228;51.022;6.764;2023-02-15T04:00:05;1.20;99.90
2435;DHT22;1228;51.022;6.764;2023-02-15T04:05:37;1.20;99.90
2435;DHT22;1228;51.022;6.764;2023-02-15T04:08:03;1.10;99.90
2435;DHT22;1228;51.022;6.764;2023-02-15T04:10:29;1.10;99.90
2435;DHT22;1228;51.022;6.764;2023-02-15T04:13:13;1.10;99.90
2435;DHT22;1228;51.022;6.764;2023-02-15T04:15:39;1.10;99.90
2435;DHT22;1228;51.022;6.764;2023-02-15T04:18:23;1.10;99.90
2435;DHT22;1228;51.022;6.764;2023-02-15T04:21:08;1.00;99.90
2435;DHT22;1228;51.022;6.764;2023-02-15T04:23:52;1.00;99.90
2435;DHT22;1228;51.022;6.764;2023-02-15T04:26:36;1.00;99.90
2435;DHT22;1228;51.022;6.764;2023-02-15T04:29:02;1.00;99.90
2435;DHT22;1228;51.022;6.764;2023-02-15T04:31:27;1.00;99.90
2435;DHT22;1228;51.022;6.764;2023-02-15T04:33:53;1.00;99.90
2435;DHT22;1228;51.022;6.764;2023-02-15T04:36:18;1.00;99.90
2435;DHT22;1228;51.022;6.764;2023-02-15T04:38:44;0.90;99.90
2435;DHT22;1228;51.022;6.764;2023-02-15T04:41:09;0.90;99.90
2435;DHT22;1228;51.022;6.764;2023-02-15T04:43:37;0.90;99.90
2435;DHT22;1228;51.022;6.764;2023-02-15T04:46:03;0.90;99.90
2435;DHT22;1228;51.022;6.764;2023-02-15T04:48:29;0.90;99.90
2435;DHT22;1228;51.022;6.764;2023-02-15T04:50:54;0.90;99.90
2435;DHT22;1228;51.022;6.764;2023-02-15T04:53:20;0.90;99.90
2435;DHT22;1228;51.022;6.764;2023-02-15T04:55:46;0.90;99.90
2435;DHT22;1228;51.022;6.764;2023-02-15T04:58:11;0.90;99.90
2435;DHT22;1228;51.022;6.764;2023-02-15T05:00:37;0.90;99.90
2435;DHT22;1228;51.022;6.764;2023-02-15T05:03:02;0.80;99.90
2435;DHT22;1228;51.022;6.764;2023-02-15T05:05:28;0.80;99.90
2435;DHT22;1228;51.022;6.764;2023-02-15T05:07:54;0.80;99.90
2435;DHT22;1228;51.022;6.764;2023-02-15T05:10:19;0.80;99.90
2435;DHT22;1228;51.022;6.764;2023-02-15T05:12:45;0.80;99.90
2435;DHT22;1228;51.022;6.764;2023-02-15T05:15:11;0.80;99.90
2435;DHT22;1228;51.022;6.764;2023-02-15T05:17:37;0.80;99.90
2435;DHT22;1228;51.022;6.764;2023-02-15T05:20:03;0.80;99.90
2435;DHT22;1228;51.022;6.764;2023-02-15T05:22:28;0.80;99.90
2435;DHT22;1228;51.022;6.764;2023-02-15T05:24:54;0.80;99.90
2435;DHT22;1228;51.022;6.764;2023-02-15T05:27:38;0.80;99.90
2435;DHT22;1228;51.022;6.764;2023-02-15T05:30:22;0.80;99.90
2435;DHT22;1228;51.022;6.764;2023-02-15T05:32:48;0.70;99.90
2435;DHT22;1228;51.022;6.764;2023-02-15T05:35:14;0.70;99.90
2435;DHT22;1228;51.022;6.764;2023-02-15T05:37:40;0.70;99.90
2435;DHT22;1228;51.022;6.764;2023-02-15T05:40:07;0.70;99.90
2435;DHT22;1228;51.022;6.764;2023-02-15T05:42:32;0.70;99.90
2435;DHT22;1228;51.022;6.764;2023-02-15T05:44:58;0.80;99.90
2435;DHT22;1228;51.022;6.764;2023-02-15T05:47:23;0.80;99.90
2435;DHT22;1228;51.022;6.764;2023-02-15T05:49:49;0.80;99.90
2435;DHT22;1228;51.022;6.764;2023-02-15T05:52:15;0.80;99.90
2435;DHT22;1228;51.022;6.764;2023-02-15T05:54:40;0.80;99.90
2435;DHT22;1228;51.022;6.764;2023-02-15T05:57:06;0.80;99.90
2435;DHT22;1228;51.022;6.764;2023-02-15T05:59:31;0.80;99.90
2435;DHT22;1228;51.022;6.764;2023-02-15T06:01:57;0.80;99.90
2435;DHT22;1228;51.022;6.764;2023-02-15T06:04:23;0.80;99.90
2435;DHT22;1228;51.022;6.764;2023-02-15T06:06:48;0.70;99.90
2435;DHT22;1228;51.022;6.764;2023-02-15T06:09:14;0.70;99.90
2435;DHT22;1228;51.022;6.764;2023-02-15T06:11:39;0.70;99.90
2435;DHT22;1228;51.022;6.764;2023-02-15T06:14:05;0.70;99.90
2435;DHT22;1228;51.022;6.764;2023-02-15T06:16:31;0.80;99.90
2435;DHT22;1228;51.022;6.764;2023-02-15T06:18:56;0.70;99.90
2435;DHT22;1228;51.022;6.764;2023-02-15T06:21:24;0.70;99.90
2435;DHT22;1228;51.022;6.764;2023-02-15T06:23:50;0.70;99.90
2435;DHT22;1228;51.022;6.764;2023-02-15T06:26:15;0.70;99.90
2435;DHT22;1228;51.022;6.764;2023-02-15T06:28:41;0.70;99.90
2435;DHT22;1228;51.022;6.764;2023-02-15T06:31:06;0.70;99.90
2435;DHT22;1228;51.022;6.764;2023-02-15T06:33:32;0.70;99.90
2435;DHT22;1228;51.022;6.764;2023-02-15T06:35:59;0.70;99.90
2435;DHT22;1228;51.022;6.764;2023-02-15T06:38:25;0.70;99.90
2435;DHT22;1228;51.022;6.764;2023-02-15T06:40:50;0.70;99.90
2435;DHT22;1228;51.022;6.764;2023-02-15T06:43:16;0.70;99.90
2435;DHT22;1228;51.022;6.764;2023-02-15T06:45:42;0.70;99.90
2435;DHT22;1228;51.022;6.764;2023-02-15T06:48:07;0.70;99.90
2435;DHT22;1228;51.022;6.764;2023-02-15T06:50:34;0.70;99.90
2435;DHT22;1228;51.022;6.764;2023-02-15T06:52:59;0.70;99.90
2435;DHT22;1228;51.022;6.764;2023-02-15T06:55:25;0.70;99.90
2435;DHT22;1228;51.022;6.764;2023-02-15T06:57:51;0.70;99.90
2435;DHT22;1228;51.022;6.764;2023-02-15T07:00:17;0.70;99.90
2435;DHT22;1228;51.022;6.764;2023-02-15T07:02:44;0.80;99.90
2435;DHT22;1228;51.022;6.764;2023-02-15T07:05:09;0.80;99.90
2435;DHT22;1228;51.022;6.764;2023-02-15T07:07:35;0.80;99.90
2435;DHT22;1228;51.022;6.764;2023-02-15T07:10:01;0.80;99.90
2435;DHT22;1228;51.022;6.764;2023-02-15T07:12:27;0.80;99.90
2435;DHT22;1228;51.022;6.764;2023-02-15T07:15:10;0.80;99.90
2435;DHT22;1228;51.022;6.764;2023-02-15T07:17:36;0.90;99.90
2435;DHT22;1228;51.022;6.764;2023-02-15T07:20:08;0.90;99.90
2435;DHT22;1228;51.022;6.764;2023-02-15T07:22:34;1.00;99.90
2435;DHT22;1228;51.022;6.764;2023-02-15T07:25:02;1.00;99.90
2435;DHT22;1228;51.022;6.764;2023-02-15T07:27:28;1.10;99.90
2435;DHT22;1228;51.022;6.764;2023-02-15T07:29:54;1.10;99.90
2435;DHT22;1228;51.022;6.764;2023-02-15T07:32:20;1.10;99.90
2435;DHT22;1228;51.022;6.764;2023-02-15T07:34:45;1.20;99.90
2435;DHT22;1228;51.022;6.764;2023-02-15T07:37:11;1.20;99.90
2435;DHT22;1228;51.022;6.764;2023-02-15T07:39:36;1.20;99.90
2435;DHT22;1228;51.022;6.764;2023-02-15T07:42:02;1.30;99.90
2435;DHT22;1228;51.022;6.764;2023-02-15T07:44:28;1.30;99.90
2435;DHT22;1228;51.022;6.764;2023-02-15T07:46:53;1.40;99.90
2435;DHT22;1228;51.022;6.764;2023-02-15T07:49:19;1.50;99.90
2435;DHT22;1228;51.022;6.764;2023-02-15T07:51:44;1.80;99.90
2435;DHT22;1228;51.022;6.764;2023-02-15T07:54:11;2.10;99.90
2435;DHT22;1228;51.022;6.764;2023-02-15T07:56:36;2.30;99.90
2435;DHT22;1228;51.022;6.764;2023-02-15T07:59:02;2.50;99.90
2435;DHT22;1228;51.022;6.764;2023-02-15T08:01:36;2.80;99.90
2435;DHT22;1228;51.022;6.764;2023-02-15T08:04:03;3.00;99.90
2435;DHT22;1228;51.022;6.764;2023-02-15T08:06:31;3.30;99.90
2435;DHT22;1228;51.022;6.764;2023-02-15T08:08:57;3.50;99.90
2435;DHT22;1228;51.022;6.764;2023-02-15T08:11:30;3.70;99.90
2435;DHT22;1228;51.022;6.764;2023-02-15T08:14:09;3.90;99.90
2435;DHT22;1228;51.022;6.764;2023-02-15T08:16:38;4.10;99.90
2435;DHT22;1228;51.022;6.764;2023-02-15T08:19:22;4.40;99.90
2435;DHT22;1228;51.022;6.764;2023-02-15T08:21:50;4.80;99.90
2435;DHT22;1228;51.022;6.764;2023-02-15T08:24:18;4.90;99.90
2435;DHT22;1228;51.022;6.764;2023-02-15T08:26:44;5.10;99.90
2435;DHT22;1228;51.022;6.764;2023-02-15T08:29:13;5.00;99.90
2435;DHT22;1228;51.022;6.764;2023-02-15T08:31:39;5.00;99.90
2435;DHT22;1228;51.022;6.764;2023-02-15T08:34:06;5.10;99.90
2435;DHT22;1228;51.022;6.764;2023-02-15T08:36:33;5.40;99.90
2435;DHT22;1228;51.022;6.764;2023-02-15T08:38:59;5.50;99.90
2435;DHT22;1228;51.022;6.764;2023-02-15T08:41:28;5.60;99.90
2435;DHT22;1228;51.022;6.764;2023-02-15T08:43:59;5.80;99.90
2435;DHT22;1228;51.022;6.764;2023-02-15T08:46:29;6.10;99.90
2435;DHT22;1228;51.022;6.764;2023-02-15T08:48:55;6.30;99.90
2435;DHT22;1228;51.022;6.764;2023-02-15T08:51:26;6.50;99.90
2435;DHT22;1228;51.022;6.764;2023-02-15T08:53:54;6.60;99.90
2435;DHT22;1228;51.022;6.764;2023-02-15T08:56:28;6.70;99.90
2435;DHT22;1228;51.022;6.764;2023-02-15T08:58:54;6.70;99.90
2435;DHT22;1228;51.022;6.764;2023-02-15T09:01:23;7.00;99.90
2435;DHT22;1228;51.022;6.764;2023-02-15T09:03:50;7.20;99.90
2435;DHT22;1228;51.022;6.764;2023-02-15T09:06:20;7.30;99.90
2435;DHT22;1228;51.022;6.764;2023-02-15T09:08:46;7.40;99.90
2435;DHT22;1228;51.022;6.764;2023-02-15T09:11:26;7.50;99.90
2435;DHT22;1228;51.022;6.764;2023-02-15T09:14:19;7.60;99.90
2435;DHT22;1228;51.022;6.764;2023-02-15T09:16:46;7.80;99.90
2435;DHT22;1228;51.022;6.764;2023-02-15T09:19:15;8.00;99.90
2435;DHT22;1228;51.022;6.764;2023-02-15T09:21:41;8.10;99.90
2435;DHT22;1228;51.022;6.764;2023-02-15T09:24:09;8.10;99.90
2435;DHT22;1228;51.022;6.764;2023-02-15T09:26:37;8.10;99.90
2435;DHT22;1228;51.022;6.764;2023-02-15T09:29:05;8.30;99.90
2435;DHT22;1228;51.022;6.764;2023-02-15T09:31:33;8.40;99.90
2435;DHT22;1228;51.022;6.764;2023-02-15T09:33:59;8.70;99.90
2435;DHT22;1228;51.022;6.764;2023-02-15T09:36:34;9.00;99.90
2435;DHT22;1228;51.022;6.764;2023-02-15T09:39:18;9.30;99.90
2435;DHT22;1228;51.022;6.764;2023-02-15T09:56:04;9.50;99.90
2435;DHT22;1228;51.022;6.764;2023-02-15T10:03:57;9.60;99.90
2435;DHT22;1228;51.022;6.764;2023-02-15T10:07:00;9.60;99.90
2435;DHT22;1228;51.022;6.764;2023-02-15T10:09:34;9.80;99.90
2435;DHT22;1228;51.022;6.764;2023-02-15T10:15:05;10.10;99.90
2435;DHT22;1228;51.022;6.764;2023-02-15T10:26:21;10.10;99.90
2435;DHT22;1228;51.022;6.764;2023-02-15T10:28:56;10.30;99.90
2435;DHT22;1228;51.022;6.764;2023-02-15T10:31:27;10.60;99.90
2435;DHT22;1228;51.022;6.764;2023-02-15T10:34:03;10.90;99.90
2435;DHT22;1228;51.022;6.764;2023-02-15T10:39:31;11.20;99.90
2435;DHT22;1228;51.022;6.764;2023-02-15T10:42:20;11.50;99.90
2435;DHT22;1228;51.022;6.764;2023-02-15T11:06:10;12.80;99.90
2435;DHT22;1228;51.022;6.764;2023-02-15T11:09:24;12.50;99.90
2435;DHT22;1228;51.022;6.764;2023-02-15T11:11:35;12.40;99.90
2435;DHT22;1228;51.022;6.764;2023-02-15T11:14:05;12.60;99.90
2435;DHT22;1228;51.022;6.764;2023-02-15T11:16:38;12.90;99.90
2435;DHT22;1228;51.022;6.764;2023-02-15T11:19:19;13.30;99.90
2435;DHT22;1228;51.022;6.764;2023-02-15T11:21:49;13.50;99.90
2435;DHT22;1228;51.022;6.764;2023-02-15T11:24:20;13.60;99.90
2435;DHT22;1228;51.022;6.764;2023-02-15T11:27:02;13.30;99.90
2435;DHT22;1228;51.022;6.764;2023-02-15T11:29:38;13.20;99.90
2435;DHT22;1228;51.022;6.764;2023-02-15T11:32:21;13.00;99.90
2435;DHT22;1228;51.022;6.764;2023-02-15T11:35:06;13.10;99.90
2435;DHT22;1228;51.022;6.764;2023-02-15T11:42:45;13.30;99.90
2435;DHT22;1228;51.022;6.764;2023-02-15T11:45:32;13.40;99.90
2435;DHT22;1228;51.022;6.764;2023-02-15T11:48:00;13.60;99.90
2435;DHT22;1228;51.022;6.764;2023-02-15T11:50:31;13.70;99.90
2435;DHT22;1228;51.022;6.764;2023-02-15T11:53:18;14.00;99.90
2435;DHT22;1228;51.022;6.764;2023-02-15T11:55:48;14.30;99.90
2435;DHT22;1228;51.022;6.764;2023-02-15T11:58:40;14.30;99.90
2435;DHT22;1228;51.022;6.764;2023-02-15T12:01:16;14.40;99.90
2435;DHT22;1228;51.022;6.764;2023-02-15T12:03:56;14.50;99.90
2435;DHT22;1228;51.022;6.764;2023-02-15T12:06:27;14.40;99.90
2435;DHT22;1228;51.022;6.764;2023-02-15T12:09:18;14.40;99.90
2435;DHT22;1228;51.022;6.764;2023-02-15T12:11:46;14.70;99.90
2435;DHT22;1228;51.022;6.764;2023-02-15T12:14:13;14.80;99.90
2435;DHT22;1228;51.022;6.764;2023-02-15T12:16:52;14.90;99.90
2435;DHT22;1228;51.022;6.764;2023-02-15T12:21:50;15.10;99.90
2435;DHT22;1228;51.022;6.764;2023-02-15T12:24:30;15.20;99.90
2435;DHT22;1228;51.022;6.764;2023-02-15T12:29:48;15.30;99.90
2435;DHT22;1228;51.022;6.764;2023-02-15T12:32:22;15.20;99.90
2435;DHT22;1228;51.022;6.764;2023-02-15T12:34:51;15.40;99.90
2435;DHT22;1228;51.022;6.764;2023-02-15T12:37:20;15.50;99.90
2435;DHT22;1228;51.022;6.764;2023-02-15T12:39:55;15.50;99.90
2435;DHT22;1228;51.022;6.764;2023-02-15T12:42:22;15.60;99.90
2435;DHT22;1228;51.022;6.764;2023-02-15T12:44:58;15.70;99.90
2435;DHT22;1228;51.022;6.764;2023-02-15T12:47:24;16.00;99.90
2435;DHT22;1228;51.022;6.764;2023-02-15T12:52:50;16.00;99.90
2435;DHT22;1228;51.022;6.764;2023-02-15T12:55:27;16.20;99.90
2435;DHT22;1228;51.022;6.764;2023-02-15T12:58:28;16.30;99.90
2435;DHT22;1228;51.022;6.764;2023-02-15T13:01:16;16.20;99.90
2435;DHT22;1228;51.022;6.764;2023-02-15T13:04:03;16.20;99.90
2435;DHT22;1228;51.022;6.764;2023-02-15T13:06:32;16.10;99.90
2435;DHT22;1228;51.022;6.764;2023-02-15T13:09:11;16.00;99.90
2435;DHT22;1228;51.022;6.764;2023-02-15T13:11:41;15.90;99.90
2435;DHT22;1228;51.022;6.764;2023-02-15T13:16:46;16.10;99.90
2435;DHT22;1228;51.022;6.764;2023-02-15T13:19:22;16.20;99.90
2435;DHT22;1228;51.022;6.764;2023-02-15T13:21:52;16.40;99.90
2435;DHT22;1228;51.022;6.764;2023-02-15T13:24:39;16.70;99.90
2435;DHT22;1228;51.022;6.764;2023-02-15T13:27:16;16.80;99.90
2435;DHT22;1228;51.022;6.764;2023-02-15T13:29:48;16.90;99.90
2435;DHT22;1228;51.022;6.764;2023-02-15T13:32:30;17.00;99.90
2435;DHT22;1228;51.022;6.764;2023-02-15T13:34:58;17.10;99.90
2435;DHT22;1228;51.022;6.764;2023-02-15T13:42:38;17.10;99.90
2435;DHT22;1228;51.022;6.764;2023-02-15T14:01:09;17.20;99.90
2435;DHT22;1228;51.022;6.764;2023-02-15T14:09:19;17.00;99.90
2435;DHT22;1228;51.022;6.764;2023-02-15T14:12:09;16.90;99.90
2435;DHT22;1228;51.022;6.764;2023-02-15T14:32:16;16.00;99.90
2435;DHT22;1228;51.022;6.764;2023-02-15T14:35:04;15.60;99.90
2435;DHT22;1228;51.022;6.764;2023-02-15T14:43:34;14.90;99.90
2435;DHT22;1228;51.022;6.764;2023-02-15T14:46:07;14.80;99.90
2435;DHT22;1228;51.022;6.764;2023-02-15T14:48:50;14.70;99.90
2435;DHT22;1228;51.022;6.764;2023-02-15T15:02:48;14.50;99.90
2435;DHT22;1228;51.022;6.764;2023-02-15T15:05:25;14.40;99.90
2435;DHT22;1228;51.022;6.764;2023-02-15T15:07:57;14.20;99.90
2435;DHT22;1228;51.022;6.764;2023-02-15T15:15:56;13.70;99.90
2435;DHT22;1228;51.022;6.764;2023-02-15T15:18:44;13.50;99.90
2435;DHT22;1228;51.022;6.764;2023-02-15T15:21:09;13.30;99.90
2435;DHT22;1228;51.022;6.764;2023-02-15T15:23:44;13.10;99.90
2435;DHT22;1228;51.022;6.764;2023-02-15T15:26:30;13.00;99.90
2435;DHT22;1228;51.022;6.764;2023-02-15T15:28:59;12.90;99.90
2435;DHT22;1228;51.022;6.764;2023-02-15T15:42:13;12.50;99.90
2435;DHT22;1228;51.022;6.764;2023-02-15T15:50:27;12.30;99.90
2435;DHT22;1228;51.022;6.764;2023-02-15T15:52:58;12.20;99.90
2435;DHT22;1228;51.022;6.764;2023-02-15T15:55:29;12.10;99.90
2435;DHT22;1228;51.022;6.764;2023-02-15T15:57:59;12.10;99.90
2435;DHT22;1228;51.022;6.764;2023-02-15T16:00:43;12.10;99.90
2435;DHT22;1228;51.022;6.764;2023-02-15T16:03:36;12.00;99.90
2435;DHT22;1228;51.022;6.764;2023-02-15T16:06:01;11.90;99.90
2435;DHT22;1228;51.022;6.764;2023-02-15T16:08:34;11.80;99.90
2435;DHT22;1228;51.022;6.764;2023-02-15T16:11:13;11.70;99.90
2435;DHT22;1228;51.022;6.764;2023-02-15T16:13:41;11.50;99.90
2435;DHT22;1228;51.022;6.764;2023-02-15T16:16:07;11.40;99.90
2435;DHT22;1228;51.022;6.764;2023-02-15T16:18:37;11.30;99.90
2435;DHT22;1228;51.022;6.764;2023-02-15T16:21:04;11.20;99.90
2435;DHT22;1228;51.022;6.764;2023-02-15T16:28:53;10.90;99.90
2435;DHT22;1228;51.022;6.764;2023-02-15T16:31:20;10.70;99.90
2435;DHT22;1228;51.022;6.764;2023-02-15T16:33:47;10.60;99.90
2435;DHT22;1228;51.022;6.764;2023-02-15T16:36:25;10.50;99.90
2435;DHT22;1228;51.022;6.764;2023-02-15T16:41:22;10.30;99.90
2435;DHT22;1228;51.022;6.764;2023-02-15T16:43:49;10.20;99.90
2435;DHT22;1228;51.022;6.764;2023-02-15T16:46:27;10.10;99.90
2435;DHT22;1228;51.022;6.764;2023-02-15T16:48:55;9.90;99.90
2435;DHT22;1228;51.022;6.764;2023-02-15T16:51:25;9.80;99.90
2435;DHT22;1228;51.022;6.764;2023-02-15T16:53:52;9.80;99.90
2435;DHT22;1228;51.022;6.764;2023-02-15T16:56:29;9.70;99.90
2435;DHT22;1228;51.022;6.764;2023-02-15T16:58:56;9.60;99.90
2435;DHT22;1228;51.022;6.764;2023-02-15T17:01:24;9.50;99.90
2435;DHT22;1228;51.022;6.764;2023-02-15T17:04:22;9.40;99.90
2435;DHT22;1228;51.022;6.764;2023-02-15T17:07:15;9.30;99.90
2435;DHT22;1228;51.022;6.764;2023-02-15T17:09:53;9.20;99.90
2435;DHT22;1228;51.022;6.764;2023-02-15T17:12:52;9.10;99.90
2435;DHT22;1228;51.022;6.764;2023-02-15T17:15:28;9.00;99.90
2435;DHT22;1228;51.022;6.764;2023-02-15T17:18:03;8.90;99.90
2435;DHT22;1228;51.022;6.764;2023-02-15T17:20:31;8.80;99.90
2435;DHT22;1228;51.022;6.764;2023-02-15T17:22:57;8.70;99.90
2435;DHT22;1228;51.022;6.764;2023-02-15T17:25:32;8.70;99.90
2435;DHT22;1228;51.022;6.764;2023-02-15T17:27:59;8.60;99.90
2435;DHT22;1228;51.022;6.764;2023-02-15T17:30:33;8.60;99.90
2435;DHT22;1228;51.022;6.764;2023-02-15T17:33:02;8.60;99.90
2435;DHT22;1228;51.022;6.764;2023-02-15T17:35:30;8.50;99.90
2435;DHT22;1228;51.022;6.764;2023-02-15T17:38:19;8.50;99.90
2435;DHT22;1228;51.022;6.764;2023-02-15T17:40:45;8.50;99.90
2435;DHT22;1228;51.022;6.764;2023-02-15T17:43:10;8.60;99.90
2435;DHT22;1228;51.022;6.764;2023-02-15T17:45:42;8.60;99.90
2435;DHT22;1228;51.022;6.764;2023-02-15T17:48:18;8.60;99.90
2435;DHT22;1228;51.022;6.764;2023-02-15T17:50:45;8.70;99.90
2435;DHT22;1228;51.022;6.764;2023-02-15T17:53:11;8.70;99.90
2435;DHT22;1228;51.022;6.764;2023-02-15T17:55:38;8.70;99.90
2435;DHT22;1228;51.022;6.764;2023-02-15T17:58:09;8.60;99.90
2435;DHT22;1228;51.022;6.764;2023-02-15T18:00:44;8.60;99.90
2435;DHT22;1228;51.022;6.764;2023-02-15T18:03:41;8.60;99.90
2435;DHT22;1228;51.022;6.764;2023-02-15T18:06:25;8.50;99.90
2435;DHT22;1228;51.022;6.764;2023-02-15T18:09:14;8.40;99.90
2435;DHT22;1228;51.022;6.764;2023-02-15T18:11:59;8.40;99.90
2435;DHT22;1228;51.022;6.764;2023-02-15T18:14:26;8.30;99.90
2435;DHT22;1228;51.022;6.764;2023-02-15T18:16:52;8.20;99.90
2435;DHT22;1228;51.022;6.764;2023-02-15T18:19:23;8.10;99.90
2435;DHT22;1228;51.022;6.764;2023-02-15T18:21:50;8.10;99.90
2435;DHT22;1228;51.022;6.764;2023-02-15T18:24:24;8.00;99.90
2435;DHT22;1228;51.022;6.764;2023-02-15T18:26:54;7.90;99.90
2435;DHT22;1228;51.022;6.764;2023-02-15T18:29:20;7.90;99.90
2435;DHT22;1228;51.022;6.764;2023-02-15T18:31:50;7.80;99.90
2435;DHT22;1228;51.022;6.764;2023-02-15T18:34:38;7.70;99.90
2435;DHT22;1228;51.022;6.764;2023-02-15T18:37:05;7.60;99.90
2435;DHT22;1228;51.022;6.764;2023-02-15T18:39:44;7.60;99.90
2435;DHT22;1228;51.022;6.764;2023-02-15T18:42:31;7.50;99.90
2435;DHT22;1228;51.022;6.764;2023-02-15T18:44:59;7.40;99.90
2435;DHT22;1228;51.022;6.764;2023-02-15T18:47:25;7.30;99.90
2435;DHT22;1228;51.022;6.764;2023-02-15T18:49:51;7.30;99.90
2435;DHT22;1228;51.022;6.764;2023-02-15T18:52:26;7.30;99.90
2435;DHT22;1228;51.022;6.764;2023-02-15T18:54:56;7.20;99.90
2435;DHT22;1228;51.022;6.764;2023-02-15T18:57:22;7.20;99.90
2435;DHT22;1228;51.022;6.764;2023-02-15T18:59:48;7.10;99.90
2435;DHT22;1228;51.022;6.764;2023-02-15T19:02:17;7.10;99.90
2435;DHT22;1228;51.022;6.764;2023-02-15T19:04:44;7.10;99.90
2435;DHT22;1228;51.022;6.764;2023-02-15T19:07:16;7.10;99.90
2435;DHT22;1228;51.022;6.764;2023-02-15T19:09:46;7.00;99.90
2435;DHT22;1228;51.022;6.764;2023-02-15T19:12:12;7.10;99.90
2435;DHT22;1228;51.022;6.764;2023-02-15T19:14:38;7.00;99.90
2435;DHT22;1228;51.022;6.764;2023-02-15T19:17:08;7.00;99.90
2435;DHT22;1228;51.022;6.764;2023-02-15T19:19:36;6.90;99.90
2435;DHT22;1228;51.022;6.764;2023-02-15T19:22:02;6.90;99.90
2435;DHT22;1228;51.022;6.764;2023-02-15T19:24:35;6.80;99.90
2435;DHT22;1228;51.022;6.764;2023-02-15T19:27:03;6.70;99.90
2435;DHT22;1228;51.022;6.764;2023-02-15T19:29:30;6.70;99.90
2435;DHT22;1228;51.022;6.764;2023-02-15T19:31:56;6.70;99.90
2435;DHT22;1228;51.022;6.764;2023-02-15T19:34:22;6.80;99.90
2435;DHT22;1228;51.022;6.764;2023-02-15T19:36:50;6.80;99.90
2435;DHT22;1228;51.022;6.764;2023-02-15T19:39:26;6.70;99.90
2435;DHT22;1228;51.022;6.764;2023-02-15T19:41:52;6.70;99.90
2435;DHT22;1228;51.022;6.764;2023-02-15T19:44:18;6.70;99.90
2435;DHT22;1228;51.022;6.764;2023-02-15T19:46:44;6.60;99.90
2435;DHT22;1228;51.022;6.764;2023-02-15T19:49:10;6.60;99.90
2435;DHT22;1228;51.022;6.764;2023-02-15T19:51:37;6.50;99.90
2435;DHT22;1228;51.022;6.764;2023-02-15T19:54:26;6.50;99.90
2435;DHT22;1228;51.022;6.764;2023-02-15T19:56:51;6.40;99.90
2435;DHT22;1228;51.022;6.764;2023-02-15T19:59:23;6.30;99.90